Time;durP1;ratioP1;P1;durP2;ratioP2;P2;SDS_P1;SDS_P2;PMS_P1;PMS_P2;Temp;Humidity;BMP_temperature;BMP_pressure;BME280_temperature;BME280_humidity;BME280_pressure;Samples;Min_cycle;Max_cycle;Signal;HPM_P1;HPM_P2
2022/03/05 00:02:43;;;;;;;7.63;4.47;;;;;;;0.97;88.80;102220.47;10404716;28;20064;-65
2022/03/05 00:08:06;;;;;;;8.15;4.15;;;;;;;0.98;88.85;102209.34;10408324;28;20426;-64
2022/03/05 00:13:27;;;;;;;7.15;4.75;;;;;;;0.94;87.88;102223.03;10408392;28;20055;-65
2022/03/05 00:18:50;;;;;;;10.32;4.13;;;;;;;0.93;88.56;102214.50;10405631;28;20052;-64
2022/03/05 00:24:11;;;;;;;8.30;4.80;;;;;;;0.78;88.73;102209.41;10399750;28;20465;-64
2022/03/05 00:29:33;;;;;;;6.75;4.63;;;;;;;0.81;89.53;102209.41;10375450;28;20046;-63
2022/03/05 00:34:55;;;;;;;6.80;4.40;;;;;;;0.75;89.44;102204.28;10384615;28;20053;-64
2022/03/05 00:40:17;;;;;;;10.45;4.55;;;;;;;0.83;88.76;102195.69;10414704;28;20045;-64
2022/03/05 00:45:39;;;;;;;11.55;4.35;;;;;;;0.89;88.95;102205.97;10374462;28;20081;-64
2022/03/05 00:51:00;;;;;;;11.43;4.45;;;;;;;0.82;88.20;102201.69;10394658;28;20099;-64
2022/03/05 00:56:22;;;;;;;7.57;4.63;;;;;;;0.76;89.20;102194.03;10414492;28;20064;-63
2022/03/05 01:01:44;;;;;;;6.80;4.45;;;;;;;0.80;89.85;102202.56;10413601;28;20140;-63
2022/03/05 01:07:06;;;;;;;9.85;5.05;;;;;;;0.63;90.00;102194.06;10400632;28;20055;-65
2022/03/05 01:12:27;;;;;;;10.95;4.88;;;;;;;0.67;90.52;102196.59;10432552;28;20160;-64
2022/03/05 01:17:49;;;;;;;7.82;4.85;;;;;;;0.75;89.74;102199.16;10387769;28;20046;-63
2022/03/05 01:23:12;;;;;;;11.07;5.65;;;;;;;0.70;91.28;102208.59;10373068;28;20058;-64
2022/03/05 01:28:34;;;;;;;10.95;5.32;;;;;;;0.59;90.70;102218.00;10373331;28;20045;-64
2022/03/05 01:33:55;;;;;;;10.05;5.53;;;;;;;0.56;91.68;102207.75;10405247;28;20425;-63
2022/03/05 01:39:17;;;;;;;10.18;5.82;;;;;;;0.48;90.92;102202.66;10412913;28;20041;-64
2022/03/05 01:44:39;;;;;;;10.32;5.57;;;;;;;0.47;92.72;102197.50;10411916;28;20056;-63
2022/03/05 01:50:01;;;;;;;10.00;6.07;;;;;;;0.53;92.31;102202.63;10412508;28;20111;-63
2022/03/05 01:55:24;;;;;;;8.60;5.43;;;;;;;0.45;92.89;102199.22;10412734;28;20107;-63
2022/03/05 02:00:45;;;;;;;13.85;6.13;;;;;;;0.40;92.53;102200.94;10411856;28;20425;-63
2022/03/05 02:06:07;;;;;;;7.85;5.53;;;;;;;0.39;92.51;102209.50;10401444;28;20054;-63
2022/03/05 02:11:29;;;;;;;14.93;6.22;;;;;;;0.31;92.71;102200.94;10371397;28;20089;-64
2022/03/05 02:16:51;;;;;;;9.82;5.85;;;;;;;0.30;93.39;102206.94;10388523;28;20042;-63
2022/03/05 02:22:12;;;;;;;11.65;5.75;;;;;;;0.22;93.13;102188.16;10411221;28;20100;-63
2022/03/05 02:27:34;;;;;;;9.98;5.40;;;;;;;0.35;93.71;102192.41;10370093;28;20061;-63
2022/03/05 02:32:56;;;;;;;9.50;5.65;;;;;;;0.20;93.50;102183.03;10363367;28;20060;-64
2022/03/05 02:38:20;;;;;;;9.55;5.55;;;;;;;0.22;94.69;102190.72;10411020;28;20043;-64
2022/03/05 02:43:42;;;;;;;11.88;5.80;;;;;;;0.15;94.44;102182.19;10370326;28;20407;-64
2022/03/05 02:49:04;;;;;;;12.52;6.00;;;;;;;0.16;94.92;102176.19;10370167;28;20422;-63
2022/03/05 02:54:26;;;;;;;11.02;5.50;;;;;;;0.13;95.32;102180.47;10356502;28;20064;-63
2022/03/05 02:59:47;;;;;;;10.23;5.85;;;;;;;0.16;95.27;102180.44;10392153;28;20041;-64
2022/03/05 03:05:09;;;;;;;9.85;5.53;;;;;;;0.23;95.43;102171.91;10403138;28;20057;-63
2022/03/05 03:10:31;;;;;;;15.40;5.88;;;;;;;0.19;94.98;102176.19;10411439;28;20053;-64
2022/03/05 03:15:52;;;;;;;14.00;5.95;;;;;;;0.15;95.57;102178.75;10408147;28;20054;-63
2022/03/05 03:21:14;;;;;;;9.23;5.75;;;;;;;0.12;95.92;102178.78;10409564;28;20045;-64
2022/03/05 03:26:36;;;;;;;8.75;5.60;;;;;;;0.05;95.47;102177.06;10408927;28;20551;-64
2022/03/05 03:31:58;;;;;;;9.52;4.75;;;;;;;0.03;95.79;102178.75;10408906;28;20053;-64
2022/03/05 03:37:19;;;;;;;10.18;5.72;;;;;;;0.04;96.12;102175.34;10368382;28;20049;-64
2022/03/05 03:42:43;;;;;;;12.10;5.35;;;;;;;0.11;96.36;102185.59;10397447;28;20546;-64
2022/03/05 03:48:05;;;;;;;8.82;5.10;;;;;;;0.06;96.01;102183.88;10400639;28;20049;-63
2022/03/05 03:53:26;;;;;;;8.90;4.97;;;;;;;0.09;96.10;102189.84;10413287;28;20378;-64
2022/03/05 03:58:48;;;;;;;9.98;5.30;;;;;;;0.14;95.37;102189.88;10415779;28;20045;-63
2022/03/05 04:04:10;;;;;;;8.55;5.40;;;;;;;0.04;96.15;102190.72;10416527;28;20060;-63
2022/03/05 04:09:31;;;;;;;6.05;4.57;;;;;;;0.02;95.55;102195.84;10417932;28;20489;-63
2022/03/05 04:14:54;;;;;;;7.38;4.40;;;;;;;-0.10;95.62;102187.31;10410547;28;20180;-63
2022/03/05 04:20:16;;;;;;;9.60;4.95;;;;;;;-0.13;96.43;102194.97;10415853;28;20482;-64
2022/03/05 04:25:37;;;;;;;11.32;4.65;;;;;;;-0.15;95.83;102191.59;10416165;28;20053;-64
2022/03/05 04:30:59;;;;;;;7.63;4.35;;;;;;;-0.15;95.83;102178.78;10410597;28;20050;-63
2022/03/05 04:36:21;;;;;;;7.97;4.40;;;;;;;-0.20;96.03;102189.84;10400319;28;20629;-63
2022/03/05 04:41:43;;;;;;;8.05;4.40;;;;;;;-0.25;95.69;102196.69;10400491;28;20053;-63
2022/03/05 04:47:04;;;;;;;9.05;4.35;;;;;;;-0.16;96.42;102187.31;10401824;28;20407;-63
2022/03/05 04:52:26;;;;;;;9.20;4.35;;;;;;;-0.24;96.55;102181.31;10389771;28;20052;-63
2022/03/05 04:57:48;;;;;;;7.43;3.95;;;;;;;-0.22;96.74;102187.31;10412706;28;20049;-63
2022/03/05 05:03:10;;;;;;;8.88;4.20;;;;;;;-0.32;96.50;102180.47;10374109;28;20057;-63
2022/03/05 05:08:32;;;;;;;8.77;3.92;;;;;;;-0.29;96.96;102179.63;10374992;28;20088;-63
2022/03/05 05:13:54;;;;;;;10.88;4.13;;;;;;;-0.27;96.34;102177.91;10378401;28;20057;-63
2022/03/05 05:19:25;;;;;;;9.63;4.15;;;;;;;-0.30;95.95;102189.00;10413667;28;20064;-63
2022/03/05 05:24:46;;;;;;;10.23;4.20;;;;;;;-0.31;95.83;102184.75;10397522;28;20398;-63
2022/03/05 05:30:09;;;;;;;8.90;3.97;;;;;;;-0.33;96.42;102196.69;10375902;28;20062;-63
2022/03/05 05:35:30;;;;;;;10.55;3.95;;;;;;;-0.49;95.96;102206.88;10399831;28;20068;-63
2022/03/05 05:40:52;;;;;;;8.85;3.60;;;;;;;-0.39;96.13;102213.75;10379032;28;20505;-63
2022/03/05 05:46:14;;;;;;;7.40;3.83;;;;;;;-0.49;95.72;102217.13;10414291;28;20057;-62
2022/03/05 05:51:47;;;;;;;8.18;3.90;;;;;;;-0.46;96.45;102202.66;10412882;28;20140;-63
2022/03/05 05:57:09;;;;;;;9.73;3.67;;;;;;;-0.41;95.63;102195.81;10395779;28;20050;-63
2022/03/05 06:02:30;;;;;;;7.38;3.90;;;;;;;-0.53;95.43;102206.03;10372156;28;20140;-63
2022/03/05 06:07:55;;;;;;;7.97;3.55;;;;;;;-0.48;95.25;102214.59;10395115;28;20060;-63
2022/03/05 06:13:18;;;;;;;8.68;3.80;;;;;;;-0.44;95.46;102218.88;10392835;28;20065;-63
2022/03/05 06:18:40;;;;;;;12.93;3.53;;;;;;;-0.40;94.38;102225.69;10403503;28;20045;-63
2022/03/05 06:24:01;;;;;;;5.55;3.40;;;;;;;-0.45;93.69;102235.09;10411258;28;20057;-63
2022/03/05 06:29:23;;;;;;;6.25;3.20;;;;;;;-0.50;94.12;102229.09;10410902;28;20053;-63
2022/03/05 06:34:45;;;;;;;10.75;3.80;;;;;;;-0.37;94.90;102230.81;10410940;28;20498;-63
2022/03/05 06:40:10;;;;;;;7.90;3.40;;;;;;;-0.34;94.30;102235.97;10409585;28;20056;-63
2022/03/05 06:45:32;;;;;;;5.43;2.63;;;;;;;-0.32;93.54;102231.69;10404346;28;20158;-63
2022/03/05 06:50:53;;;;;;;7.75;3.40;;;;;;;-0.25;93.18;102235.13;10370930;28;20320;-63
2022/03/05 06:56:15;;;;;;;7.03;3.17;;;;;;;-0.22;94.02;102235.97;10393014;28;20049;-63
2022/03/05 07:01:37;;;;;;;5.80;3.25;;;;;;;-0.17;92.56;102236.84;10369936;28;20042;-63
2022/03/05 07:06:59;;;;;;;7.25;3.40;;;;;;;-0.14;92.52;102241.94;10385498;28;20057;-63
2022/03/05 07:12:21;;;;;;;7.78;3.08;;;;;;;-0.11;93.47;102252.22;10410768;28;20505;-63
2022/03/05 07:17:48;;;;;;;;;;;;;;;-0.04;91.14;102251.38;10395236;28;20490;-63
2022/03/05 07:23:09;;;;;;;7.70;3.17;;;;;;;-0.01;91.99;102248.81;10405543;28;20392;-63
2022/03/05 07:28:31;;;;;;;5.93;3.35;;;;;;;0.09;91.60;102255.66;10370523;28;20430;-63
2022/03/05 07:33:53;;;;;;;6.65;3.63;;;;;;;0.19;91.91;102268.47;10378196;28;20053;-63
2022/03/05 07:39:15;;;;;;;8.77;3.35;;;;;;;0.31;90.68;102262.47;10382088;28;20049;-63
2022/03/05 07:44:36;;;;;;;9.55;3.58;;;;;;;0.27;91.77;102263.34;10388736;28;20050;-63
2022/03/05 07:49:59;;;;;;;11.07;3.30;;;;;;;0.47;90.28;102256.50;10377964;28;20077;-61
2022/03/05 07:55:21;;;;;;;6.13;3.28;;;;;;;0.48;91.24;102263.31;10413823;28;20076;-62
2022/03/05 08:00:43;;;;;;;6.88;3.60;;;;;;;0.61;89.20;102262.44;10416198;28;20426;-62
2022/03/05 08:06:05;;;;;;;7.43;3.60;;;;;;;0.69;88.85;102271.84;10416838;28;20451;-63
2022/03/05 08:11:26;;;;;;;8.48;3.80;;;;;;;0.77;90.81;102274.41;10415723;28;20383;-62
2022/03/05 08:16:48;;;;;;;11.77;4.47;;;;;;;0.83;89.14;102269.28;10416232;28;20048;-62
2022/03/05 08:22:10;;;;;;;10.93;4.60;;;;;;;0.96;88.90;102269.22;10375818;28;20112;-62
2022/03/05 08:27:31;;;;;;;9.43;5.00;;;;;;;1.02;88.46;102266.66;10377501;28;20049;-63
2022/03/05 08:32:53;;;;;;;13.57;5.50;;;;;;;1.22;87.69;102268.28;10416194;28;20057;-62
2022/03/05 08:38:14;;;;;;;9.77;5.30;;;;;;;1.29;87.00;102267.44;10414249;28;20635;-63
2022/03/05 08:43:36;;;;;;;12.88;5.50;;;;;;;1.42;86.50;102274.22;10412944;28;20048;-62
2022/03/05 08:48:58;;;;;;;9.68;5.30;;;;;;;1.61;85.66;102267.25;10415197;28;20060;-64
2022/03/05 08:54:20;;;;;;;10.80;5.57;;;;;;;1.73;84.38;102274.91;10400701;28;20050;-65
2022/03/05 08:59:42;;;;;;;8.43;5.60;;;;;;;1.85;84.19;102265.41;10373739;28;20506;-64
2022/03/05 09:05:04;;;;;;;8.27;6.20;;;;;;;2.06;82.68;102265.25;10397631;28;20057;-64
2022/03/05 09:10:26;;;;;;;12.25;6.80;;;;;;;2.16;81.46;102251.47;10413885;28;20088;-64
2022/03/05 09:15:48;;;;;;;13.70;6.97;;;;;;;2.40;79.25;102251.28;10401011;28;20068;-63
2022/03/05 09:21:09;;;;;;;10.77;6.35;;;;;;;2.49;79.37;102256.31;10372606;28;20407;-65
2022/03/05 09:26:32;;;;;;;13.40;7.00;;;;;;;2.64;77.50;102248.47;10387161;28;20422;-63
2022/03/05 09:31:54;;;;;;;12.48;7.00;;;;;;;2.80;76.53;102248.31;10359368;28;20054;-63
2022/03/05 09:37:15;;;;;;;13.77;7.38;;;;;;;2.97;75.99;102247.25;10372390;28;20553;-63
2022/03/05 09:42:45;;;;;;;13.10;7.70;;;;;;;2.96;74.60;102250.69;10391074;28;20045;-63
2022/03/05 09:48:07;;;;;;;11.25;7.35;;;;;;;3.20;72.45;102259.88;10372334;28;20045;-62
2022/03/05 09:53:30;;;;;;;13.90;7.53;;;;;;;3.17;71.54;102260.78;10393470;28;20132;-63
2022/03/05 09:58:52;;;;;;;10.88;7.20;;;;;;;3.22;73.96;102266.69;10412045;28;20053;-62
2022/03/05 10:04:22;;;;;;;12.00;7.10;;;;;;;3.25;73.60;102274.41;10370968;28;20053;-63
2022/03/05 10:09:46;;;;;;;11.35;6.70;;;;;;;3.40;72.46;102274.22;10397722;28;20390;-62
2022/03/05 10:15:11;;;;;;;9.52;5.80;;;;;;;3.43;72.88;102258.72;10385246;28;20557;-63
2022/03/05 10:20:34;;;;;;;9.47;5.63;;;;;;;3.51;72.96;102262.03;10411462;28;20406;-63
2022/03/05 10:25:57;;;;;;;12.82;6.05;;;;;;;3.67;70.41;102257.56;10390345;28;20064;-64
2022/03/05 10:31:18;;;;;;;10.65;5.70;;;;;;;3.63;71.74;102233.53;10356762;28;20057;-62
2022/03/05 10:36:55;;;;;;;8.80;5.60;;;;;;;3.87;70.21;102248.66;10370360;28;20638;-64
2022/03/05 10:42:25;;;;;;;8.52;5.13;;;;;;;3.77;71.58;102243.66;10399411;28;20050;-64
2022/03/05 10:47:53;;;;;;;10.25;5.57;;;;;;;3.81;70.72;102243.56;10369656;28;20049;-63
2022/03/05 10:53:15;;;;;;;10.13;5.38;;;;;;;3.80;71.09;102240.16;10393808;28;20045;-64
2022/03/05 10:58:36;;;;;;;9.02;5.28;;;;;;;3.94;68.01;102229.63;10410341;28;20064;-64
2022/03/05 11:03:59;;;;;;;8.23;5.38;;;;;;;4.03;69.62;102237.25;10408892;28;20655;-64
2022/03/05 11:09:23;;;;;;;13.65;4.97;;;;;;;4.03;66.56;102232.91;10410129;28;20053;-64
2022/03/05 11:14:49;;;;;;;10.50;5.43;;;;;;;4.11;68.34;102230.22;10380602;28;20401;-63
2022/03/05 11:20:11;;;;;;;8.55;5.18;;;;;;;4.20;67.03;102236.09;10408729;28;20060;-62
2022/03/05 11:25:36;;;;;;;12.80;5.50;;;;;;;4.25;66.47;102239.44;10409752;28;20096;-63
2022/03/05 11:30:57;;;;;;;9.45;5.38;;;;;;;4.30;67.33;102229.06;10372389;28;20042;-63
2022/03/05 11:36:31;;;;;;;9.40;5.05;;;;;;;4.37;68.44;102225.47;10368817;28;20057;-63
2022/03/05 11:41:53;;;;;;;9.18;5.70;;;;;;;4.36;69.44;102226.38;10396036;28;20793;-62
2022/03/05 11:47:22;;;;;;;13.32;6.13;;;;;;;4.43;67.33;102213.34;10407574;28;20581;-63
2022/03/05 11:52:43;;;;;;;8.57;5.45;;;;;;;4.53;66.91;102212.28;10409098;28;20048;-63
2022/03/05 11:58:14;;;;;;;12.30;6.18;;;;;;;4.54;66.66;102200.22;10414471;28;20041;-63
2022/03/05 12:03:42;;;;;;;8.43;5.40;;;;;;;4.61;68.27;102201.81;10412848;28;20049;-63
2022/03/05 12:09:04;;;;;;;8.88;5.65;;;;;;;4.67;67.82;102201.69;10408519;28;20053;-63
2022/03/05 12:15:04;;;;;;;10.43;6.15;;;;;;;4.81;66.37;102201.41;10407205;28;20054;-63
2022/03/05 12:20:34;;;;;;;12.30;6.70;;;;;;;4.97;65.49;102207.16;10399590;28;20052;-63
2022/03/05 12:25:58;;;;;;;12.40;6.05;;;;;;;5.13;63.18;102203.38;10362651;28;20406;-63
2022/03/05 12:31:20;;;;;;;10.80;5.97;;;;;;;4.89;67.43;102194.38;10375857;28;20050;-63
2022/03/05 12:36:46;;;;;;;10.88;6.20;;;;;;;4.99;66.46;102195.88;10375230;28;20410;-63
2022/03/05 12:42:08;;;;;;;18.17;6.65;;;;;;;5.03;66.08;102188.91;10403911;28;20065;-64
2022/03/05 12:47:34;;;;;;;10.35;5.97;;;;;;;5.16;64.10;102193.81;10403052;28;20049;-64
2022/03/05 12:53:00;;;;;;;;;;;;;;;5.10;65.21;102188.75;10391947;28;20045;-63
2022/03/05 12:58:25;;;;;;;12.52;6.97;;;;;;;5.16;65.55;102183.47;10414075;28;19932;-63
2022/03/05 13:03:47;;;;;;;12.37;6.73;;;;;;;5.35;66.03;102178.75;10405960;28;20045;-63
2022/03/05 13:09:14;;;;;;;14.88;6.82;;;;;;;5.32;65.75;102178.81;10407489;28;20673;-63
2022/03/05 13:14:51;;;;;;;13.43;6.45;;;;;;;5.42;65.87;102182.94;10393130;28;20053;-63
2022/03/05 13:20:16;;;;;;;12.93;6.60;;;;;;;5.46;64.08;102185.41;10413611;28;20050;-63
2022/03/05 13:25:40;;;;;;;12.07;7.20;;;;;;;5.45;65.78;102180.28;10413919;28;20068;-62
2022/03/05 13:31:04;;;;;;;12.35;7.43;;;;;;;5.67;62.88;102177.19;10398827;28;20053;-62
2022/03/05 13:36:40;;;;;;;12.73;7.70;;;;;;;5.81;62.02;102178.56;10413455;28;20045;-63
2022/03/05 13:42:09;;;;;;;;;;;;;;;5.55;64.38;102168.84;10386728;28;20050;-63
2022/03/05 13:47:31;;;;;;;15.13;6.85;;;;;;;5.74;65.52;102165.78;10372213;28;19921;-63
2022/03/05 13:53:02;;;;;;;10.30;6.78;;;;;;;5.76;65.57;102156.25;10389361;28;20045;-63
2022/03/05 13:58:23;;;;;;;11.77;6.75;;;;;;;5.96;61.40;102167.03;10390815;28;20046;-66
2022/03/05 14:04:14;;;;;;;12.48;7.18;;;;;;;5.92;62.72;102162.81;10371697;28;20050;-62
2022/03/05 14:09:39;;;;;;;12.88;7.32;;;;;;;5.85;64.56;102166.41;10376841;28;20049;-63
2022/03/05 14:15:07;;;;;;;15.18;7.10;;;;;;;5.68;64.72;102155.56;10371293;28;20144;-64
2022/03/05 14:20:39;;;;;;;12.38;7.35;;;;;;;5.76;65.86;102158.84;10370757;28;20053;-63
2022/03/05 14:26:06;;;;;;;10.88;6.30;;;;;;;5.96;61.93;102159.25;10384590;28;20064;-63
2022/03/05 14:31:28;;;;;;;12.32;7.13;;;;;;;5.86;63.86;102165.53;10370775;28;20052;-63
2022/03/05 14:36:50;;;;;;;14.93;6.82;;;;;;;5.81;64.43;102159.63;10356866;28;20410;-63
2022/03/05 14:42:17;;;;;;;13.43;6.53;;;;;;;5.86;64.44;102165.53;10380606;28;20045;-63
2022/03/05 14:47:40;;;;;;;10.32;6.50;;;;;;;5.92;62.28;102173.16;10370216;28;20492;-62
2022/03/05 14:53:03;;;;;;;11.35;6.68;;;;;;;5.96;65.69;102164.44;10384292;28;20053;-63
2022/03/05 14:58:25;;;;;;;14.48;7.18;;;;;;;6.00;61.71;102150.50;10401370;28;20049;-63
2022/03/05 15:03:47;;;;;;;14.30;6.93;;;;;;;5.93;62.05;102155.00;10368687;28;20077;-64
2022/03/05 15:09:08;;;;;;;12.57;5.85;;;;;;;5.97;62.32;102150.59;10390742;28;20053;-64
2022/03/05 15:14:31;;;;;;;12.35;6.75;;;;;;;6.05;60.74;102156.44;10407306;28;20553;-63
2022/03/05 15:19:52;;;;;;;11.43;6.40;;;;;;;6.08;60.22;102157.19;10368598;28;20042;-63
2022/03/05 15:25:14;;;;;;;9.55;5.40;;;;;;;6.04;61.31;102167.69;10398548;28;20060;-63
2022/03/05 15:30:36;;;;;;;8.77;5.90;;;;;;;6.10;63.22;102152.00;10409799;28;20394;-63
2022/03/05 15:35:58;;;;;;;10.45;6.25;;;;;;;6.19;62.83;102157.78;10376283;28;20053;-64
2022/03/05 15:41:19;;;;;;;9.85;5.70;;;;;;;6.05;60.50;102164.19;10390052;28;20430;-63
2022/03/05 15:46:41;;;;;;;10.35;6.07;;;;;;;6.31;60.87;102172.16;10409413;28;20136;-63
2022/03/05 15:52:03;;;;;;;12.35;6.82;;;;;;;6.61;59.84;102167.03;10413078;28;20588;-63
2022/03/05 15:57:25;;;;;;;10.90;6.43;;;;;;;7.03;57.94;102166.66;10417321;28;20140;-63
2022/03/05 16:02:48;;;;;;;10.57;6.20;;;;;;;7.21;56.87;102170.47;10363220;28;20053;-62
2022/03/05 16:08:10;;;;;;;8.98;5.93;;;;;;;6.61;59.40;102171.34;10376524;28;20597;-63
2022/03/05 16:13:32;;;;;;;9.05;5.75;;;;;;;6.28;61.99;102175.69;10377779;28;20054;-63
2022/03/05 16:18:54;;;;;;;8.52;5.47;;;;;;;6.07;59.39;102177.97;10415524;28;20517;-63
2022/03/05 16:24:15;;;;;;;9.23;5.20;;;;;;;5.76;61.78;102166.59;10400900;28;20057;-63
2022/03/05 16:29:37;;;;;;;10.00;5.53;;;;;;;5.73;60.02;102177.03;10375874;28;20533;-63
2022/03/05 16:34:59;;;;;;;8.52;5.63;;;;;;;5.70;61.92;102174.50;10375082;28;20061;-63
2022/03/05 16:40:23;;;;;;;11.25;6.45;;;;;;;5.51;64.11;102175.81;10375183;28;20042;-63
2022/03/05 16:45:47;;;;;;;12.70;5.70;;;;;;;5.47;63.91;102174.19;10374617;28;20049;-63
2022/03/05 16:51:09;;;;;;;11.77;6.38;;;;;;;5.29;63.15;102172.00;10401692;28;20292;-63
2022/03/05 16:56:30;;;;;;;9.00;5.60;;;;;;;5.31;64.07;102177.16;10415103;28;20060;-63
2022/03/05 17:01:53;;;;;;;12.05;6.13;;;;;;;5.09;66.25;102171.59;10413386;28;20046;-63
2022/03/05 17:07:14;;;;;;;9.18;5.72;;;;;;;5.07;67.55;102178.50;10414492;28;20563;-63
2022/03/05 17:12:56;;;;;;;9.38;5.70;;;;;;;4.91;70.51;102177.13;10413865;28;20053;-63
2022/03/05 17:18:18;;;;;;;9.13;6.07;;;;;;;4.85;68.19;102192.72;10400325;28;20046;-63
2022/03/05 17:23:40;;;;;;;10.75;5.97;;;;;;;4.83;68.88;102189.31;10413416;28;20061;-62
2022/03/05 17:29:02;;;;;;;9.65;5.53;;;;;;;4.68;72.59;102193.06;10413515;28;20056;-62
2022/03/05 17:34:24;;;;;;;9.00;5.53;;;;;;;4.55;69.96;102186.44;10413773;28;20060;-63
2022/03/05 17:39:47;;;;;;;11.35;6.18;;;;;;;4.56;72.21;102195.88;10396431;28;20041;-63
2022/03/05 17:45:14;;;;;;;13.52;6.47;;;;;;;4.44;73.46;102206.44;10413425;28;20494;-63
2022/03/05 17:50:36;;;;;;;9.43;5.60;;;;;;;4.33;75.32;102208.34;10372264;28;20549;-63
2022/03/05 17:55:58;;;;;;;12.50;6.80;;;;;;;4.22;73.59;102215.44;10386040;28;20053;-63
2022/03/05 18:01:22;;;;;;;11.77;6.63;;;;;;;4.27;75.45;102219.63;10371659;28;20077;-63
2022/03/05 18:06:45;;;;;;;10.90;6.53;;;;;;;4.16;73.99;102223.25;10385321;28;20057;-63
2022/03/05 18:12:07;;;;;;;14.23;8.30;;;;;;;4.29;71.25;102227.34;10411667;28;20049;-63
2022/03/05 18:17:29;;;;;;;16.63;8.75;;;;;;;4.15;75.65;102226.72;10404507;28;20049;-63
2022/03/05 18:22:50;;;;;;;15.18;8.82;;;;;;;4.06;74.43;102229.47;10407747;28;20033;-62
2022/03/05 18:28:13;;;;;;;16.98;9.85;;;;;;;3.97;73.20;102242.47;10377002;28;20409;-63
2022/03/05 18:33:34;;;;;;;17.02;9.60;;;;;;;3.88;74.80;102237.47;10370926;28;20057;-63
2022/03/05 18:38:56;;;;;;;16.63;9.30;;;;;;;3.83;76.07;102245.28;10373871;28;21664;-63
2022/03/05 18:44:18;;;;;;;15.25;9.15;;;;;;;3.76;76.03;102253.13;10370055;28;20050;-63
2022/03/05 18:49:40;;;;;;;18.42;9.45;;;;;;;3.70;75.47;102253.19;10395582;28;20134;-63
2022/03/05 18:55:03;;;;;;;15.95;9.07;;;;;;;3.64;74.74;102263.56;10410498;28;20049;-63
2022/03/05 19:00:25;;;;;;;15.30;9.95;;;;;;;3.61;76.39;102263.66;10386773;28;20057;-63
2022/03/05 19:05:47;;;;;;;20.85;11.60;;;;;;;3.42;78.52;102269.91;10375384;28;20053;-63
2022/03/05 19:11:11;;;;;;;20.27;11.65;;;;;;;3.37;77.41;102278.56;10409830;28;20049;-61
2022/03/05 19:16:33;;;;;;;16.95;10.18;;;;;;;3.44;75.47;102275.88;10409526;28;20228;-63
2022/03/05 19:21:55;;;;;;;16.35;9.93;;;;;;;3.39;75.28;102277.66;10409648;28;20088;-63
2022/03/05 19:27:18;;;;;;;13.38;8.95;;;;;;;3.30;73.82;102282.94;10366300;28;20054;-63
2022/03/05 19:32:40;;;;;;;16.67;9.30;;;;;;;3.33;75.38;102282.91;10356198;28;20503;-63
2022/03/05 19:38:07;;;;;;;16.83;9.68;;;;;;;3.25;75.15;102292.44;10409616;28;20061;-63
2022/03/05 19:43:29;;;;;;;17.30;9.93;;;;;;;3.16;75.82;102291.69;10400578;28;20048;-63
2022/03/05 19:48:53;;;;;;;19.40;9.95;;;;;;;3.11;76.23;102289.16;10368217;28;20045;-63
2022/03/05 19:54:14;;;;;;;17.73;10.23;;;;;;;3.02;76.42;102293.56;10372873;28;20054;-62
2022/03/05 19:59:36;;;;;;;18.10;9.85;;;;;;;3.03;77.97;102288.41;10368889;28;20049;-63
2022/03/05 20:04:57;;;;;;;15.70;9.75;;;;;;;3.02;76.86;102299.56;10395164;28;20060;-62
2022/03/05 20:10:20;;;;;;;16.27;10.30;;;;;;;2.85;77.58;102309.19;10391539;28;20042;-62
2022/03/05 20:15:42;;;;;;;16.80;9.63;;;;;;;2.83;78.15;102304.06;10406991;28;20049;-62
2022/03/05 20:21:04;;;;;;;21.70;10.27;;;;;;;2.64;77.31;102308.53;10368227;28;20085;-63
2022/03/05 20:26:25;;;;;;;19.35;10.23;;;;;;;2.68;78.16;102304.19;10388429;28;20060;-61
2022/03/05 20:31:48;;;;;;;18.25;10.43;;;;;;;2.73;79.17;102312.75;10416792;28;20062;-61
2022/03/05 20:37:10;;;;;;;14.85;10.05;;;;;;;2.52;78.98;102311.22;10377808;28;20053;-63
2022/03/05 20:42:32;;;;;;;14.45;9.48;;;;;;;2.44;79.29;102319.84;10381358;28;20056;-62
2022/03/05 20:47:53;;;;;;;21.48;10.90;;;;;;;2.42;81.06;102319.84;10362054;28;20060;-63
2022/03/05 20:53:15;;;;;;;17.90;10.02;;;;;;;2.42;79.06;102332.72;10409327;28;20072;-63
2022/03/05 20:58:37;;;;;;;17.10;10.25;;;;;;;2.39;80.66;102337.03;10389841;28;20391;-63
2022/03/05 21:03:59;;;;;;;18.52;10.57;;;;;;;2.35;81.18;102340.47;10374789;28;20524;-63
2022/03/05 21:09:21;;;;;;;19.08;10.48;;;;;;;2.25;82.75;102344.00;10374709;28;20050;-62
2022/03/05 21:14:42;;;;;;;18.98;10.85;;;;;;;2.32;82.53;102337.97;10386697;28;20060;-63
2022/03/05 21:20:05;;;;;;;18.33;11.05;;;;;;;2.31;80.12;102336.25;10400147;28;20049;-63
2022/03/05 21:25:27;;;;;;;17.38;10.43;;;;;;;2.21;81.40;102348.31;10413468;28;20068;-63
2022/03/05 21:30:48;;;;;;;17.00;10.90;;;;;;;2.05;82.69;102356.97;10414142;28;20056;-63
2022/03/05 21:36:10;;;;;;;17.88;11.23;;;;;;;2.05;81.81;102350.97;10372307;28;20053;-63
2022/03/05 21:41:32;;;;;;;18.15;10.02;;;;;;;1.96;81.42;102361.31;10396188;28;20049;-63
2022/03/05 21:46:54;;;;;;;16.42;10.50;;;;;;;1.97;82.83;102361.28;10411884;28;20065;-63
2022/03/05 21:52:16;;;;;;;20.52;10.88;;;;;;;1.96;82.67;102358.75;10412270;28;20053;-63
2022/03/05 21:57:38;;;;;;;17.15;10.02;;;;;;;1.98;83.42;102359.59;10412617;28;20063;-62
2022/03/05 22:03:00;;;;;;;17.05;9.98;;;;;;;1.79;82.74;102368.25;10411589;28;20052;-62
2022/03/05 22:08:22;;;;;;;17.05;9.18;;;;;;;1.81;83.98;102371.66;10410477;28;20140;-63
2022/03/05 22:13:43;;;;;;;16.13;9.52;;;;;;;1.77;85.44;102380.25;10347592;28;20057;-62
2022/03/05 22:19:05;;;;;;;12.73;8.80;;;;;;;1.72;84.57;102382.00;10398717;28;20076;-63
2022/03/05 22:24:27;;;;;;;15.45;8.93;;;;;;;1.77;85.28;102387.94;10398447;28;20056;-63
2022/03/05 22:29:48;;;;;;;15.98;8.35;;;;;;;1.64;85.73;102388.88;10412880;28;20176;-62
2022/03/05 22:35:10;;;;;;;17.17;9.38;;;;;;;1.54;85.79;102387.19;10389648;28;20391;-62
2022/03/05 22:40:32;;;;;;;14.27;8.57;;;;;;;1.62;86.31;102389.75;10386725;28;20048;-64
2022/03/05 22:46:15;;;;;;;16.00;8.07;;;;;;;1.50;86.17;102395.75;10370148;28;20444;-63
2022/03/05 22:51:37;;;;;;;13.30;7.95;;;;;;;1.58;87.00;102394.03;10376823;28;20108;-63
2022/03/05 22:56:58;;;;;;;15.43;8.10;;;;;;;1.41;86.83;102410.34;10410480;28;20075;-63
2022/03/05 23:13:41;;;;;;;14.07;6.97;;;;;;;1.44;87.52;102420.59;10372593;28;20054;-63
2022/03/05 23:19:04;;;;;;;12.85;6.72;;;;;;;1.41;87.71;102411.22;10386535;28;20062;-63
2022/03/05 23:24:25;;;;;;;13.20;6.68;;;;;;;1.31;87.48;102421.50;10359912;28;20405;-64
2022/03/05 23:29:47;;;;;;;12.73;6.63;;;;;;;1.31;88.20;102427.47;10410430;28;20037;-63
2022/03/05 23:35:09;;;;;;;12.93;6.28;;;;;;;1.24;88.73;102433.47;10395468;28;20059;-63
2022/03/05 23:40:31;;;;;;;10.90;6.03;;;;;;;1.13;88.26;102435.22;10409925;28;20041;-63
2022/03/05 23:45:52;;;;;;;12.55;5.95;;;;;;;1.06;89.33;102437.78;10408942;28;20057;-63
2022/03/05 23:51:14;;;;;;;10.73;5.88;;;;;;;1.11;89.36;102433.47;10408459;28;20454;-63
2022/03/05 23:56:36;;;;;;;8.93;5.68;;;;;;;1.07;89.97;102430.06;10409202;28;20060;-63
